Terminal Aerodrome Forecast
Issued by NWS Bismarck, ND

Home | Current Version | Previous Version | Text Only | Print | Product List | Glossary Off
Versions: 1 2 3 4 5 6 7 8 9 10 11 12 13 14 15 16 17 18 19 20 21

000
FTUS43 KBIS 271330 AAA
TAFBIS
TAF AMD
KBIS 271330Z 2714/2812 10007KT P6SM BKN150
     FM271600 14015G25KT P6SM SCT150
     FM272100 16018G30KT P6SM SCT050
     FM280300 14015G25KT P6SM VCTS BKN050CB
     FM280700 27015G25KT P6SM VCTS BKN050CB=

USA.gov is the U.S. government's official web portal to all federal, state and local government web resources and services.